Time;durP1;ratioP1;P1;durP2;ratioP2;P2;SDS_P1;SDS_P2;PMS_P1;PMS_P2;Temp;Humidity;BMP_temperature;BMP_pressure;BME280_temperature;BME280_humidity;BME280_pressure;Samples;Min_cycle;Max_cycle;Signal;HPM_P1;HPM_P2
2022/06/20 00:00:33;;;;;;;;;;;13.30;99.90;;;;;;5109714;28;19968;-79
2022/06/20 00:02:59;;;;;;;;;;;13.30;99.90;;;;;;5111068;28;19998;-80
2022/06/20 00:05:26;;;;;;;;;;;13.30;99.90;;;;;;5119925;28;20376;-81
2022/06/20 00:07:52;;;;;;;;;;;13.20;99.90;;;;;;5132070;28;19923;-80
2022/06/20 00:10:19;;;;;;;;;;;13.30;99.90;;;;;;5130458;28;20376;-80
2022/06/20 00:12:45;;;;;;;;;;;13.50;99.90;;;;;;5118381;28;19919;-80
2022/06/20 00:15:19;;;;;;;;;;;13.20;99.90;;;;;;5096362;28;19926;-80
2022/06/20 00:17:45;;;;;;;;;;;13.20;99.90;;;;;;5118229;28;20387;-81
2022/06/20 00:20:11;;;;;;;;;;;13.20;99.90;;;;;;5110936;28;19920;-81
2022/06/20 00:22:37;;;;;;;;;;;13.20;99.90;;;;;;5122582;28;19923;-81
2022/06/20 00:25:03;;;;;;;;;;;13.20;99.90;;;;;;5109128;28;20352;-81
2022/06/20 00:27:28;;;;;;;;;;;13.10;99.90;;;;;;5094124;28;19963;-81
2022/06/20 00:29:54;;;;;;;;;;;13.10;99.90;;;;;;5107709;28;20279;-80
2022/06/20 00:32:20;;;;;;;;;;;13.10;99.90;;;;;;5093711;28;19920;-81
2022/06/20 00:34:45;;;;;;;;;;;13.10;99.90;;;;;;5113014;28;19927;-80
2022/06/20 00:37:16;;;;;;;;;;;13.10;99.90;;;;;;5115455;28;19920;-81
2022/06/20 00:39:42;;;;;;;;;;;13.10;99.90;;;;;;5129108;27;20294;-81
2022/06/20 00:42:08;;;;;;;;;;;13.10;99.90;;;;;;5115125;28;20010;-81
2022/06/20 00:44:36;;;;;;;;;;;13.00;99.90;;;;;;5097537;28;20269;-80
2022/06/20 00:47:05;;;;;;;;;;;13.00;99.90;;;;;;5129187;27;19928;-81
2022/06/20 00:49:36;;;;;;;;;;;13.00;99.90;;;;;;5108403;27;20015;-81
2022/06/20 00:52:13;;;;;;;;;;;12.90;99.90;;;;;;5113917;27;19931;-80
2022/06/20 00:54:48;;;;;;;;;;;12.90;99.90;;;;;;5132553;27;19919;-81
2022/06/20 00:57:20;;;;;;;;;;;12.90;99.90;;;;;;5114930;27;19924;-81
2022/06/20 01:00:15;;;;;;;;;;;12.90;99.90;;;;;;5115712;27;19924;-81
2022/06/20 01:02:42;;;;;;;;;;;12.80;99.90;;;;;;5104139;27;19966;-81
2022/06/20 01:05:28;;;;;;;;;;;12.80;99.90;;;;;;5114910;27;20002;-81
2022/06/20 01:07:55;;;;;;;;;;;12.70;99.90;;;;;;5100063;28;19942;-81
2022/06/20 01:10:21;;;;;;;;;;;12.60;99.90;;;;;;5113356;28;19919;-81
2022/06/20 01:12:51;;;;;;;;;;;12.60;99.90;;;;;;5113932;27;19963;-81
2022/06/20 01:15:22;;;;;;;;;;;12.50;99.90;;;;;;5120274;27;20006;-80
2022/06/20 01:17:49;;;;;;;;;;;12.40;99.90;;;;;;5105603;28;19927;-80
2022/06/20 01:20:16;;;;;;;;;;;12.40;99.90;;;;;;5130027;27;19934;-80
2022/06/20 01:22:52;;;;;;;;;;;12.30;99.90;;;;;;5133744;27;19979;-80
2022/06/20 01:25:17;;;;;;;;;;;12.20;99.90;;;;;;5119963;27;20369;-80
2022/06/20 01:27:44;;;;;;;;;;;12.10;99.90;;;;;;5127482;27;20049;-80
2022/06/20 01:30:10;;;;;;;;;;;12.00;99.90;;;;;;5110787;27;19919;-79
2022/06/20 01:32:36;;;;;;;;;;;12.00;99.90;;;;;;5097500;28;19919;-81
2022/06/20 01:35:04;;;;;;;;;;;12.00;99.90;;;;;;5113520;28;19963;-81
2022/06/20 01:37:32;;;;;;;;;;;11.90;99.90;;;;;;5127450;27;20056;-81
2022/06/20 01:40:00;;;;;;;;;;;11.80;99.90;;;;;;5125990;27;19977;-81
2022/06/20 01:42:28;;;;;;;;;;;11.80;99.90;;;;;;5119254;27;20380;-80
2022/06/20 01:45:06;;;;;;;;;;;11.80;99.90;;;;;;5117091;27;19926;-79
2022/06/20 01:47:34;;;;;;;;;;;11.80;99.90;;;;;;5127507;27;19979;-79
2022/06/20 01:50:04;;;;;;;;;;;11.80;99.90;;;;;;5118952;27;19930;-80
2022/06/20 01:52:35;;;;;;;;;;;11.70;99.90;;;;;;5113677;27;20021;-80
2022/06/20 01:55:04;;;;;;;;;;;11.70;99.90;;;;;;5076615;28;19954;-80
2022/06/20 01:57:30;;;;;;;;;;;11.60;99.90;;;;;;5106952;28;20012;-80
2022/06/20 02:00:02;;;;;;;;;;;11.60;99.90;;;;;;5102155;27;20403;-80
2022/06/20 02:02:29;;;;;;;;;;;11.60;99.90;;;;;;5118990;27;19923;-80
2022/06/20 02:04:54;;;;;;;;;;;11.60;99.90;;;;;;5109450;28;19920;-81
2022/06/20 02:07:20;;;;;;;;;;;11.60;99.90;;;;;;5124618;27;19925;-80
2022/06/20 02:09:46;;;;;;;;;;;11.60;99.90;;;;;;5116413;27;20383;-80
2022/06/20 02:12:11;;;;;;;;;;;11.60;99.90;;;;;;5123602;27;19923;-80
2022/06/20 02:14:41;;;;;;;;;;;11.70;99.90;;;;;;5133225;27;19950;-80
2022/06/20 02:17:10;;;;;;;;;;;11.80;99.90;;;;;;5123556;27;19923;-80
2022/06/20 02:19:39;;;;;;;;;;;11.80;99.90;;;;;;5111468;27;19969;-80
2022/06/20 02:22:06;;;;;;;;;;;11.90;99.90;;;;;;5133486;27;19923;-81
2022/06/20 02:24:34;;;;;;;;;;;11.90;99.90;;;;;;5117340;27;19945;-81
2022/06/20 02:27:02;;;;;;;;;;;12.00;99.90;;;;;;5095828;28;19923;-81
2022/06/20 02:29:33;;;;;;;;;;;12.00;99.90;;;;;;5110011;27;19942;-81
2022/06/20 02:32:06;;;;;;;;;;;12.10;99.90;;;;;;5095955;28;19924;-81
2022/06/20 02:34:32;;;;;;;;;;;12.00;99.90;;;;;;5106508;27;20281;-81
2022/06/20 02:37:01;;;;;;;;;;;12.00;99.90;;;;;;5126427;27;19924;-80
2022/06/20 02:39:27;;;;;;;;;;;12.00;99.90;;;;;;5112446;28;19919;-80
2022/06/20 02:41:57;;;;;;;;;;;12.00;99.90;;;;;;5112691;27;19928;-80
2022/06/20 02:44:24;;;;;;;;;;;12.00;99.90;;;;;;5111043;28;19985;-80
2022/06/20 02:46:51;;;;;;;;;;;11.90;99.90;;;;;;5095511;28;20388;-81
2022/06/20 02:49:19;;;;;;;;;;;11.80;99.90;;;;;;5111800;28;20004;-81
2022/06/20 02:51:50;;;;;;;;;;;11.70;99.90;;;;;;5112151;28;20319;-80
2022/06/20 02:54:16;;;;;;;;;;;11.60;99.90;;;;;;5112188;27;19919;-80
2022/06/20 02:57:01;;;;;;;;;;;11.40;99.90;;;;;;5111860;28;20327;-80
2022/06/20 02:59:29;;;;;;;;;;;11.60;99.90;;;;;;5093825;28;20318;-80
2022/06/20 03:02:13;;;;;;;;;;;11.40;99.90;;;;;;5111392;28;20288;-81
2022/06/20 03:04:41;;;;;;;;;;;11.30;99.90;;;;;;5110332;28;19919;-81
2022/06/20 03:07:12;;;;;;;;;;;11.20;99.90;;;;;;5113427;28;19965;-81
2022/06/20 03:09:39;;;;;;;;;;;11.30;99.90;;;;;;5111418;28;19959;-80
2022/06/20 03:12:06;;;;;;;;;;;11.10;99.90;;;;;;5112778;28;19991;-80
2022/06/20 03:14:36;;;;;;;;;;;10.90;99.90;;;;;;5125776;27;19950;-80
2022/06/20 03:17:03;;;;;;;;;;;10.90;99.90;;;;;;5112631;28;19920;-81
2022/06/20 03:19:31;;;;;;;;;;;10.80;99.90;;;;;;5123813;27;19998;-80
2022/06/20 03:21:58;;;;;;;;;;;10.80;99.90;;;;;;5131477;27;19923;-81
2022/06/20 03:24:24;;;;;;;;;;;10.60;99.90;;;;;;5120398;27;19924;-81
2022/06/20 03:26:53;;;;;;;;;;;10.60;99.90;;;;;;5117582;27;20269;-81
2022/06/20 03:29:21;;;;;;;;;;;10.50;99.90;;;;;;5115726;27;20014;-80
2022/06/20 03:31:47;;;;;;;;;;;10.50;99.90;;;;;;5114962;27;20326;-81
2022/06/20 03:34:13;;;;;;;;;;;10.40;99.90;;;;;;5094069;28;20010;-79
2022/06/20 03:36:40;;;;;;;;;;;10.40;99.90;;;;;;5094710;28;20014;-80
2022/06/20 03:39:06;;;;;;;;;;;10.40;99.90;;;;;;5112269;28;20401;-81
2022/06/20 03:41:31;;;;;;;;;;;10.30;99.90;;;;;;5125262;27;20012;-81
2022/06/20 03:44:00;;;;;;;;;;;10.40;99.90;;;;;;5114290;28;20101;-80
2022/06/20 03:46:37;;;;;;;;;;;10.50;99.90;;;;;;5098231;28;19920;-80
2022/06/20 03:49:03;;;;;;;;;;;10.60;99.90;;;;;;5114534;27;19923;-81
2022/06/20 03:51:45;;;;;;;;;;;10.80;99.90;;;;;;5110665;27;20322;-81
2022/06/20 03:54:15;;;;;;;;;;;10.90;99.90;;;;;;5112480;27;19920;-80
2022/06/20 03:56:44;;;;;;;;;;;10.90;99.90;;;;;;5130808;28;20372;-80
2022/06/20 03:59:12;;;;;;;;;;;11.00;99.90;;;;;;5132361;28;20281;-79
2022/06/20 04:02:02;;;;;;;;;;;11.20;99.90;;;;;;5122986;28;20387;-80
2022/06/20 04:04:42;;;;;;;;;;;11.20;99.90;;;;;;5124947;28;19920;-80
2022/06/20 04:07:11;;;;;;;;;;;11.70;99.90;;;;;;5111381;28;20011;-81
2022/06/20 04:12:44;;;;;;;;;;;11.60;99.90;;;;;;5135627;27;19919;-80
2022/06/20 04:15:13;;;;;;;;;;;11.90;99.90;;;;;;5130548;27;19924;-81
2022/06/20 04:20:49;;;;;;;;;;;12.00;99.90;;;;;;5111950;27;20296;-81
2022/06/20 04:23:17;;;;;;;;;;;12.00;99.90;;;;;;5135016;27;20404;-82
2022/06/20 04:25:55;;;;;;;;;;;11.90;99.90;;;;;;5124779;27;19942;-79
2022/06/20 04:28:32;;;;;;;;;;;11.90;99.90;;;;;;5129443;27;20280;-81
2022/06/20 04:31:01;;;;;;;;;;;12.00;99.90;;;;;;5107447;27;20261;-80
2022/06/20 04:33:53;;;;;;;;;;;12.00;99.90;;;;;;5135031;27;19919;-81
2022/06/20 04:36:45;;;;;;;;;;;12.00;99.90;;;;;;5099106;28;19967;-80
2022/06/20 04:39:17;;;;;;;;;;;12.10;99.90;;;;;;5080044;28;19920;-80
2022/06/20 04:41:49;;;;;;;;;;;12.10;99.90;;;;;;5115677;27;19928;-80
2022/06/20 04:44:21;;;;;;;;;;;12.10;99.90;;;;;;5135311;27;19972;-81
2022/06/20 04:46:59;;;;;;;;;;;12.10;99.90;;;;;;5102332;27;19927;-81
2022/06/20 04:49:24;;;;;;;;;;;12.20;99.90;;;;;;5119032;27;19934;-81
2022/06/20 04:51:50;;;;;;;;;;;12.10;99.90;;;;;;5114471;28;19927;-81
2022/06/20 04:54:18;;;;;;;;;;;12.10;99.90;;;;;;5098562;28;20305;-81
2022/06/20 04:56:44;;;;;;;;;;;11.90;99.90;;;;;;5114325;28;19919;-81
2022/06/20 04:59:13;;;;;;;;;;;11.30;99.90;;;;;;5114565;28;19920;-81
2022/06/20 05:01:39;;;;;;;;;;;11.90;99.90;;;;;;5127686;27;19926;-80
2022/06/20 05:04:07;;;;;;;;;;;12.00;99.90;;;;;;5114240;28;19969;-81
2022/06/20 05:06:34;;;;;;;;;;;12.00;99.90;;;;;;5100480;27;19942;-80
2022/06/20 05:09:03;;;;;;;;;;;12.10;99.90;;;;;;5124960;27;20282;-81
2022/06/20 05:11:35;;;;;;;;;;;12.20;99.90;;;;;;5116897;27;20012;-81
2022/06/20 05:14:05;;;;;;;;;;;12.30;99.90;;;;;;5134665;27;19955;-80
2022/06/20 05:16:33;;;;;;;;;;;12.40;99.90;;;;;;5116738;27;19927;-80
2022/06/20 05:19:00;;;;;;;;;;;12.50;99.90;;;;;;5113641;28;19926;-81
2022/06/20 05:21:28;;;;;;;;;;;12.70;99.90;;;;;;5113933;27;19923;-81
2022/06/20 05:23:59;;;;;;;;;;;12.80;99.90;;;;;;5103583;27;19924;-80
2022/06/20 05:26:27;;;;;;;;;;;12.90;99.90;;;;;;5115604;27;19924;-80
2022/06/20 05:28:55;;;;;;;;;;;13.00;99.90;;;;;;5126745;27;20299;-80
2022/06/20 05:31:28;;;;;;;;;;;13.10;99.90;;;;;;5114553;28;20293;-80
2022/06/20 05:34:11;;;;;;;;;;;13.20;99.90;;;;;;5107608;27;19923;-81
2022/06/20 05:36:49;;;;;;;;;;;13.40;99.90;;;;;;5117794;27;19932;-81
2022/06/20 05:39:15;;;;;;;;;;;13.80;99.90;;;;;;5114918;27;19923;-82
2022/06/20 05:41:41;;;;;;;;;;;14.00;99.90;;;;;;5113731;27;19942;-80
2022/06/20 05:44:10;;;;;;;;;;;14.00;99.90;;;;;;5096645;28;20270;-81
2022/06/20 05:46:48;;;;;;;;;;;14.00;99.90;;;;;;5113473;28;19997;-80
2022/06/20 05:49:17;;;;;;;;;;;14.00;99.90;;;;;;5104530;28;19926;-80
2022/06/20 05:51:45;;;;;;;;;;;13.90;99.90;;;;;;5101414;27;19930;-81
2022/06/20 05:54:13;;;;;;;;;;;13.90;99.90;;;;;;5116484;27;19998;-81
2022/06/20 05:56:47;;;;;;;;;;;13.90;99.90;;;;;;5083025;28;19920;-80
2022/06/20 05:59:28;;;;;;;;;;;13.90;99.90;;;;;;5113195;28;20368;-80
2022/06/20 06:01:57;;;;;;;;;;;13.90;99.90;;;;;;5112933;28;19923;-80
2022/06/20 06:04:32;;;;;;;;;;;14.00;99.90;;;;;;5077653;27;20381;-81
2022/06/20 06:07:02;;;;;;;;;;;14.10;99.90;;;;;;5124669;27;19930;-81
2022/06/20 06:09:39;;;;;;;;;;;14.20;99.90;;;;;;5129323;27;19927;-81
2022/06/20 06:12:08;;;;;;;;;;;14.40;99.90;;;;;;5123168;27;19923;-79
2022/06/20 06:14:40;;;;;;;;;;;14.60;99.90;;;;;;5113420;28;19926;-80
2022/06/20 06:17:10;;;;;;;;;;;14.80;99.90;;;;;;5113725;28;19923;-81
2022/06/20 06:19:36;;;;;;;;;;;15.00;99.90;;;;;;5126603;27;19920;-81
2022/06/20 06:22:05;;;;;;;;;;;15.00;99.90;;;;;;5112883;28;19927;-81
2022/06/20 06:24:32;;;;;;;;;;;15.20;99.90;;;;;;5112758;28;20344;-80
2022/06/20 06:26:59;;;;;;;;;;;15.30;99.90;;;;;;5112726;28;19968;-81
2022/06/20 06:29:31;;;;;;;;;;;15.20;99.90;;;;;;5099320;28;19920;-81
2022/06/20 06:31:58;;;;;;;;;;;15.20;99.90;;;;;;5119609;27;19919;-81
2022/06/20 06:34:43;;;;;;;;;;;15.30;99.90;;;;;;5101266;28;19981;-79
2022/06/20 06:37:12;;;;;;;;;;;15.40;99.90;;;;;;5102027;28;19974;-81
2022/06/20 06:39:44;;;;;;;;;;;15.30;99.90;;;;;;5112897;28;20281;-81
2022/06/20 06:42:12;;;;;;;;;;;15.20;99.90;;;;;;5121355;27;19971;-80
2022/06/20 06:44:41;;;;;;;;;;;15.10;99.90;;;;;;5117381;27;19919;-81
2022/06/20 06:47:14;;;;;;;;;;;15.10;99.90;;;;;;5095246;28;19985;-80
2022/06/20 06:49:39;;;;;;;;;;;15.10;99.90;;;;;;5113320;27;19957;-81
2022/06/20 06:52:09;;;;;;;;;;;15.10;99.90;;;;;;5094762;28;19979;-80
2022/06/20 06:54:41;;;;;;;;;;;15.00;99.90;;;;;;5096436;27;20017;-80
2022/06/20 06:57:12;;;;;;;;;;;15.10;99.90;;;;;;5112685;28;20262;-80
2022/06/20 06:59:40;;;;;;;;;;;15.20;99.90;;;;;;5128220;27;19957;-80
2022/06/20 07:02:12;;;;;;;;;;;15.20;99.90;;;;;;5107032;28;19924;-80
2022/06/20 07:04:48;;;;;;;;;;;15.30;99.90;;;;;;5111993;28;19924;-80
2022/06/20 07:07:32;;;;;;;;;;;15.20;99.90;;;;;;5104220;27;20280;-80
2022/06/20 07:09:58;;;;;;;;;;;15.30;99.90;;;;;;5117048;27;19926;-80
2022/06/20 07:12:27;;;;;;;;;;;15.30;99.90;;;;;;5122411;27;19920;-79
2022/06/20 07:14:58;;;;;;;;;;;15.30;99.90;;;;;;5127474;27;19931;-80
2022/06/20 07:17:29;;;;;;;;;;;15.50;99.90;;;;;;5097098;28;20124;-81
2022/06/20 07:19:55;;;;;;;;;;;15.90;99.90;;;;;;5122624;27;20004;-81
2022/06/20 07:22:21;;;;;;;;;;;16.20;99.90;;;;;;5131632;27;19988;-80
2022/06/20 07:24:47;;;;;;;;;;;16.30;99.90;;;;;;5129096;27;19919;-80
2022/06/20 07:27:32;;;;;;;;;;;16.20;99.90;;;;;;5096326;28;19927;-80
2022/06/20 07:30:09;;;;;;;;;;;16.00;99.90;;;;;;5124871;27;19926;-81
2022/06/20 07:32:38;;;;;;;;;;;15.80;99.90;;;;;;5112466;28;20323;-80
2022/06/20 07:35:09;;;;;;;;;;;15.70;99.90;;;;;;5097733;27;20396;-81
2022/06/20 07:37:38;;;;;;;;;;;15.90;99.90;;;;;;5132552;27;19919;-80
2022/06/20 07:40:07;;;;;;;;;;;16.20;99.90;;;;;;5127205;27;19923;-81
2022/06/20 07:42:36;;;;;;;;;;;16.20;99.90;;;;;;5111466;28;19927;-81
2022/06/20 07:45:06;;;;;;;;;;;16.20;99.90;;;;;;5111167;28;19920;-81
2022/06/20 07:47:42;;;;;;;;;;;16.20;99.90;;;;;;5121476;27;19924;-79
2022/06/20 07:50:10;;;;;;;;;;;16.30;99.90;;;;;;5095385;28;19924;-81
2022/06/20 07:52:47;;;;;;;;;;;16.20;99.90;;;;;;5112239;27;19928;-80
2022/06/20 07:55:20;;;;;;;;;;;16.00;99.90;;;;;;5119959;28;20403;-81
2022/06/20 07:58:08;;;;;;;;;;;15.90;99.90;;;;;;5116377;28;19942;-80
2022/06/20 08:00:41;;;;;;;;;;;16.10;99.90;;;;;;5122356;28;20348;-82
2022/06/20 08:03:13;;;;;;;;;;;16.20;99.90;;;;;;5106945;28;19981;-80
2022/06/20 08:05:44;;;;;;;;;;;16.40;99.90;;;;;;5111440;28;19919;-83
2022/06/20 08:08:16;;;;;;;;;;;16.40;99.90;;;;;;5099008;28;19929;-80
2022/06/20 08:10:48;;;;;;;;;;;16.50;99.90;;;;;;5119572;28;19949;-80
2022/06/20 08:13:17;;;;;;;;;;;16.80;99.90;;;;;;5100526;28;19926;-80
2022/06/20 08:15:47;;;;;;;;;;;16.80;99.90;;;;;;5118949;28;20015;-80
2022/06/20 08:18:13;;;;;;;;;;;16.90;99.90;;;;;;5111009;28;19973;-81
2022/06/20 08:20:42;;;;;;;;;;;17.20;99.90;;;;;;5111140;28;19920;-80
2022/06/20 08:23:07;;;;;;;;;;;17.40;99.90;;;;;;5096633;28;19928;-80
2022/06/20 08:25:42;;;;;;;;;;;17.20;99.90;;;;;;5104935;28;20432;-79
2022/06/20 08:28:17;;;;;;;;;;;17.30;99.90;;;;;;5093619;28;19928;-80
2022/06/20 08:30:42;;;;;;;;;;;17.40;99.90;;;;;;5123390;28;20403;-79
2022/06/20 08:33:08;;;;;;;;;;;17.40;99.90;;;;;;5113349;28;19930;-81
2022/06/20 08:35:41;;;;;;;;;;;17.30;99.90;;;;;;5101825;28;19974;-80
2022/06/20 08:38:26;;;;;;;;;;;17.10;99.90;;;;;;5090615;28;20376;-79
2022/06/20 08:41:18;;;;;;;;;;;16.90;99.90;;;;;;5111231;28;19942;-81
2022/06/20 08:44:10;;;;;;;;;;;17.20;99.90;;;;;;5093141;28;20306;-80
2022/06/20 08:47:06;;;;;;;;;;;17.70;99.90;;;;;;5111064;28;19923;-80
2022/06/20 08:49:50;;;;;;;;;;;17.90;99.90;;;;;;5110084;28;20379;-80
2022/06/20 08:52:16;;;;;;;;;;;17.80;99.90;;;;;;5113836;28;19927;-81
2022/06/20 08:54:54;;;;;;;;;;;17.40;99.90;;;;;;5114959;28;19981;-80
2022/06/20 08:57:42;;;;;;;;;;;17.10;99.90;;;;;;5116242;27;20292;-80
2022/06/20 09:00:21;;;;;;;;;;;16.90;99.90;;;;;;5109440;27;19971;-81
2022/06/20 09:03:00;;;;;;;;;;;17.20;99.90;;;;;;5117127;27;19924;-80
2022/06/20 09:05:44;;;;;;;;;;;17.50;99.90;;;;;;5097897;28;19939;-81
2022/06/20 09:08:13;;;;;;;;;;;17.50;99.90;;;;;;5115134;27;19919;-81
2022/06/20 09:11:02;;;;;;;;;;;17.50;99.90;;;;;;5123908;27;19992;-81
2022/06/20 09:13:27;;;;;;;;;;;17.80;99.90;;;;;;5091937;28;19949;-80
2022/06/20 09:16:11;;;;;;;;;;;18.00;99.90;;;;;;5114166;28;20010;-81
2022/06/20 09:19:03;;;;;;;;;;;18.00;99.90;;;;;;5110383;27;19971;-80
2022/06/20 09:21:29;;;;;;;;;;;18.20;99.90;;;;;;5116050;27;19965;-81
2022/06/20 09:24:00;;;;;;;;;;;18.30;99.90;;;;;;5115463;28;19924;-80
2022/06/20 09:26:31;;;;;;;;;;;18.20;99.90;;;;;;5097940;27;19927;-80
2022/06/20 09:29:14;;;;;;;;;;;18.20;99.90;;;;;;5134233;27;20375;-80
2022/06/20 09:31:47;;;;;;;;;;;18.50;99.90;;;;;;5134405;27;19931;-81
2022/06/20 09:34:32;;;;;;;;;;;18.40;99.90;;;;;;5122527;27;19945;-81
2022/06/20 09:36:57;;;;;;;;;;;18.20;99.90;;;;;;5120316;27;19920;-81
2022/06/20 09:39:40;;;;;;;;;;;18.20;99.90;;;;;;5117667;27;19920;-79
2022/06/20 09:42:13;;;;;;;;;;;18.40;99.90;;;;;;5109756;28;19934;-80
2022/06/20 09:44:47;;;;;;;;;;;18.40;99.90;;;;;;5097163;28;20284;-80
2022/06/20 09:47:23;;;;;;;;;;;18.00;99.90;;;;;;5109280;27;20003;-79
2022/06/20 09:50:07;;;;;;;;;;;17.60;99.90;;;;;;5095795;28;19974;-80
2022/06/20 09:52:52;;;;;;;;;;;17.30;99.90;;;;;;5091529;28;19924;-81
2022/06/20 09:55:37;;;;;;;;;;;17.30;99.90;;;;;;5101088;28;19926;-81
2022/06/20 09:58:17;;;;;;;;;;;17.50;99.90;;;;;;5113458;28;19980;-80
2022/06/20 10:00:45;;;;;;;;;;;17.60;99.90;;;;;;5113556;28;19927;-80
2022/06/20 10:03:18;;;;;;;;;;;17.80;99.90;;;;;;5130926;27;19924;-80
2022/06/20 10:05:54;;;;;;;;;;;17.90;99.90;;;;;;5133787;27;19968;-80
2022/06/20 10:08:26;;;;;;;;;;;18.00;99.90;;;;;;5133918;27;19969;-80
2022/06/20 10:11:06;;;;;;;;;;;18.00;99.90;;;;;;5131460;27;19923;-79
2022/06/20 10:13:52;;;;;;;;;;;18.20;99.90;;;;;;5102675;28;19939;-81
2022/06/20 10:16:22;;;;;;;;;;;18.40;99.90;;;;;;5063359;28;19942;-79
2022/06/20 10:18:54;;;;;;;;;;;18.40;99.90;;;;;;5103330;28;19946;-80
2022/06/20 10:21:30;;;;;;;;;;;18.20;99.90;;;;;;5114331;28;19926;-81
2022/06/20 10:23:55;;;;;;;;;;;18.30;99.90;;;;;;5112508;28;20381;-79
2022/06/20 10:26:41;;;;;;;;;;;18.60;99.90;;;;;;5115452;27;19946;-80
2022/06/20 10:29:06;;;;;;;;;;;18.80;99.90;;;;;;5124671;27;20022;-81
2022/06/20 10:31:48;;;;;;;;;;;18.80;99.90;;;;;;5112189;28;20440;-81
2022/06/20 10:34:20;;;;;;;;;;;18.60;99.90;;;;;;5111961;28;19919;-80
2022/06/20 10:36:52;;;;;;;;;;;18.60;99.90;;;;;;5133025;27;20010;-80
2022/06/20 10:39:37;;;;;;;;;;;18.70;99.90;;;;;;5119772;27;20360;-80
2022/06/20 10:42:15;;;;;;;;;;;18.60;99.90;;;;;;5100384;28;19928;-80
2022/06/20 10:45:00;;;;;;;;;;;18.40;99.90;;;;;;5095898;28;19942;-80
2022/06/20 10:47:30;;;;;;;;;;;18.20;99.90;;;;;;5095865;28;19919;-80
2022/06/20 10:50:10;;;;;;;;;;;18.20;99.90;;;;;;5108540;28;19942;-80
2022/06/20 10:52:48;;;;;;;;;;;18.20;99.90;;;;;;5089234;28;19924;-80
2022/06/20 10:55:19;;;;;;;;;;;18.20;99.90;;;;;;5103692;27;19927;-80
2022/06/20 10:57:48;;;;;;;;;;;18.50;99.90;;;;;;5101286;28;19931;-80
2022/06/20 11:00:15;;;;;;;;;;;18.60;99.90;;;;;;5081920;28;19919;-80
2022/06/20 11:02:49;;;;;;;;;;;18.40;99.90;;;;;;5095662;28;19924;-81
2022/06/20 11:05:21;;;;;;;;;;;18.50;99.90;;;;;;5106598;27;19919;-80
2022/06/20 11:07:52;;;;;;;;;;;18.70;99.90;;;;;;5118082;27;19927;-80
2022/06/20 11:10:37;;;;;;;;;;;18.60;99.90;;;;;;5078949;28;19982;-78
2022/06/20 11:13:12;;;;;;;;;;;18.90;99.90;;;;;;5111272;27;20444;-81
2022/06/20 11:15:56;;;;;;;;;;;19.10;99.90;;;;;;5115724;27;19919;-81
2022/06/20 11:18:28;;;;;;;;;;;19.00;99.90;;;;;;5126663;27;19919;-79
2022/06/20 11:20:59;;;;;;;;;;;18.70;99.90;;;;;;5125082;27;20380;-79
2022/06/20 11:23:34;;;;;;;;;;;18.60;99.90;;;;;;5110611;28;20380;-80
2022/06/20 11:26:06;;;;;;;;;;;18.40;99.90;;;;;;5094590;28;19996;-80
2022/06/20 11:28:36;;;;;;;;;;;18.50;99.90;;;;;;5100190;27;19919;-80
2022/06/20 11:31:22;;;;;;;;;;;18.70;99.90;;;;;;5132592;27;19923;-80
2022/06/20 11:34:00;;;;;;;;;;;18.90;99.90;;;;;;5091202;28;20001;-80
2022/06/20 11:36:38;;;;;;;;;;;18.90;99.90;;;;;;5095685;27;20036;-81
2022/06/20 11:39:10;;;;;;;;;;;18.70;99.90;;;;;;5132120;27;19926;-80
2022/06/20 11:41:56;;;;;;;;;;;18.50;99.90;;;;;;5126101;27;19919;-80
2022/06/20 11:44:21;;;;;;;;;;;18.70;99.90;;;;;;5110698;28;20459;-80
2022/06/20 11:46:56;;;;;;;;;;;18.80;99.90;;;;;;5111794;28;19923;-80
2022/06/20 11:49:22;;;;;;;;;;;19.20;99.90;;;;;;5110711;28;19955;-80
2022/06/20 11:52:04;;;;;;;;;;;19.50;99.90;;;;;;5094428;28;19966;-79
2022/06/20 11:54:36;;;;;;;;;;;19.50;99.90;;;;;;5128409;27;19924;-80
2022/06/20 11:57:19;;;;;;;;;;;19.10;99.90;;;;;;5123183;27;19920;-78
2022/06/20 11:59:45;;;;;;;;;;;18.50;99.90;;;;;;5126475;28;19929;-80
2022/06/20 12:02:30;;;;;;;;;;;18.20;99.90;;;;;;5120205;28;20014;-79
2022/06/20 12:04:57;;;;;;;;;;;18.00;99.90;;;;;;5131025;28;19919;-80
2022/06/20 12:07:30;;;;;;;;;;;18.10;99.90;;;;;;5098925;28;19941;-79
2022/06/20 12:10:14;;;;;;;;;;;18.30;99.90;;;;;;5116706;28;19920;-80
2022/06/20 12:12:40;;;;;;;;;;;18.50;99.90;;;;;;5098646;28;19920;-80
2022/06/20 12:15:24;;;;;;;;;;;18.70;99.90;;;;;;5115642;28;19943;-80
2022/06/20 12:18:01;;;;;;;;;;;18.90;99.90;;;;;;5100415;28;19928;-80
2022/06/20 12:23:28;;;;;;;;;;;19.00;99.90;;;;;;5127425;28;19923;-79
2022/06/20 12:25:58;;;;;;;;;;;19.20;99.40;;;;;;5131230;28;20258;-80
2022/06/20 12:28:24;;;;;;;;;;;19.50;99.30;;;;;;5112912;28;19919;-79
2022/06/20 12:31:07;;;;;;;;;;;19.50;99.90;;;;;;5115718;28;19945;-80
2022/06/20 12:33:34;;;;;;;;;;;19.30;99.90;;;;;;5115185;27;19919;-78
2022/06/20 12:36:04;;;;;;;;;;;19.30;99.90;;;;;;5127412;27;19919;-80
2022/06/20 12:38:30;;;;;;;;;;;19.50;99.90;;;;;;5116377;28;19967;-79
2022/06/20 12:40:59;;;;;;;;;;;19.70;99.90;;;;;;5098540;28;19920;-79
2022/06/20 12:43:48;;;;;;;;;;;19.50;99.90;;;;;;5114505;28;19946;-79
2022/06/20 12:46:17;;;;;;;;;;;19.30;99.90;;;;;;5097883;28;19920;-80
2022/06/20 12:48:45;;;;;;;;;;;18.90;99.90;;;;;;5113368;27;19968;-80
2022/06/20 12:51:25;;;;;;;;;;;18.70;99.90;;;;;;5097743;28;19990;-79
2022/06/20 12:53:52;;;;;;;;;;;18.80;99.90;;;;;;5097561;28;19924;-79
2022/06/20 12:56:36;;;;;;;;;;;18.90;99.90;;;;;;5114598;28;20398;-79
2022/06/20 12:59:20;;;;;;;;;;;18.70;99.90;;;;;;5097605;28;20376;-80
2022/06/20 13:02:05;;;;;;;;;;;18.40;99.90;;;;;;5106010;28;19920;-80
2022/06/20 13:04:49;;;;;;;;;;;18.10;99.90;;;;;;5097469;28;19920;-79
2022/06/20 13:07:18;;;;;;;;;;;17.90;99.90;;;;;;5106796;27;19920;-79
2022/06/20 13:09:43;;;;;;;;;;;17.70;99.90;;;;;;5132908;27;20009;-79
2022/06/20 13:12:12;;;;;;;;;;;17.60;99.90;;;;;;5097282;28;20004;-80
2022/06/20 13:14:40;;;;;;;;;;;17.80;99.90;;;;;;5113821;28;20276;-80
2022/06/20 13:17:12;;;;;;;;;;;18.50;99.90;;;;;;5113999;28;19923;-79
2022/06/20 13:19:56;;;;;;;;;;;18.70;99.90;;;;;;5126851;27;19919;-79
2022/06/20 13:22:32;;;;;;;;;;;18.50;99.90;;;;;;5125919;27;19928;-79
2022/06/20 13:25:03;;;;;;;;;;;18.40;99.90;;;;;;5100426;27;19925;-79
2022/06/20 13:27:44;;;;;;;;;;;18.80;99.90;;;;;;5123163;27;19920;-79
2022/06/20 13:30:31;;;;;;;;;;;19.00;99.90;;;;;;5096855;28;19968;-79
2022/06/20 13:33:03;;;;;;;;;;;18.90;99.90;;;;;;5111057;27;19957;-79
2022/06/20 13:35:52;;;;;;;;;;;19.00;99.90;;;;;;5117088;27;19920;-79
2022/06/20 13:38:24;;;;;;;;;;;19.20;99.90;;;;;;5115918;27;19919;-78
2022/06/20 13:40:52;;;;;;;;;;;19.40;99.90;;;;;;5112638;27;19965;-79
2022/06/20 13:43:24;;;;;;;;;;;19.30;99.90;;;;;;5119093;27;19949;-79
2022/06/20 13:45:53;;;;;;;;;;;19.30;99.90;;;;;;5097009;28;19927;-79
2022/06/20 13:48:25;;;;;;;;;;;19.20;99.90;;;;;;5112818;28;19959;-79
2022/06/20 13:50:51;;;;;;;;;;;19.60;99.90;;;;;;5113485;28;20010;-79
2022/06/20 13:53:21;;;;;;;;;;;20.40;99.90;;;;;;5128657;27;20007;-80
2022/06/20 13:56:05;;;;;;;;;;;20.80;99.90;;;;;;5126394;27;19924;-79
2022/06/20 13:58:32;;;;;;;;;;;20.70;99.90;;;;;;5126921;27;19963;-79
2022/06/20 14:01:01;;;;;;;;;;;20.30;99.20;;;;;;5110819;27;20014;-79
2022/06/20 14:03:29;;;;;;;;;;;19.80;99.50;;;;;;5110068;28;19924;-78
2022/06/20 14:06:07;;;;;;;;;;;19.40;99.90;;;;;;5113525;28;19920;-79
2022/06/20 14:08:33;;;;;;;;;;;19.10;99.90;;;;;;5112810;28;20293;-79
2022/06/20 14:10:59;;;;;;;;;;;18.70;99.90;;;;;;5092405;27;19919;-80
2022/06/20 14:13:30;;;;;;;;;;;18.40;99.90;;;;;;5117191;27;19923;-79
2022/06/20 14:16:15;;;;;;;;;;;18.20;99.90;;;;;;5134055;27;19929;-79
2022/06/20 14:18:45;;;;;;;;;;;18.10;99.90;;;;;;5125539;27;20399;-79
2022/06/20 14:21:11;;;;;;;;;;;18.10;99.90;;;;;;5092537;27;19942;-79
2022/06/20 14:23:46;;;;;;;;;;;18.10;99.90;;;;;;5132316;27;20401;-80
2022/06/20 14:26:23;;;;;;;;;;;18.20;99.90;;;;;;5118708;27;19919;-78
2022/06/20 14:28:49;;;;;;;;;;;18.20;99.90;;;;;;5099343;27;20257;-78
2022/06/20 14:31:21;;;;;;;;;;;18.10;99.90;;;;;;5105444;28;19923;-79
2022/06/20 14:33:49;;;;;;;;;;;18.00;99.90;;;;;;5131650;27;19919;-80
2022/06/20 14:36:18;;;;;;;;;;;17.80;99.90;;;;;;5134506;27;19920;-79
2022/06/20 14:38:46;;;;;;;;;;;17.60;99.90;;;;;;5117368;27;19923;-79
2022/06/20 14:44:08;;;;;;;;;;;18.20;99.90;;;;;;5112410;28;19931;-80
2022/06/20 14:46:49;;;;;;;;;;;18.50;99.90;;;;;;5095557;28;19920;-79
2022/06/20 14:49:30;;;;;;;;;;;18.30;99.90;;;;;;5091046;27;19920;-78
2022/06/20 14:51:58;;;;;;;;;;;17.90;99.90;;;;;;5100915;27;20016;-79
2022/06/20 14:54:29;;;;;;;;;;;17.50;99.90;;;;;;5095122;28;19927;-79
2022/06/20 14:57:16;;;;;;;;;;;17.20;99.90;;;;;;5095468;28;19920;-79